PILOTS ONLINE: 135    ATC ONLINE: 17

KFHU

Sierra Vista Municipal Libby Army Air Field

Location

IATA FHU
City Fort Huachuca Sierra Vista
Country  United States
Latitude 31° 35' 18" N
Longitude 110° 20' 38" W
Elevation 4719 ft
Type Medium Airport

Map

Weather

METAR
2014/10/01 05:55
KFHU 010555Z 14005KT 10SM CLR 16/04 A2998 RMK SLP100 50000
TAF
2014/10/01 03:09
TAF KFHU 0103/0209 VRB06KT 9999 SKC QNH2997INS 
      BECMG 0118/0119 23009KT 9999 SKC QNH2993INS 
      TEMPO 0122/0202 26012G18KT 
      BECMG 0202/0203 VRB06KT 9999 SKC QNH2998INS TX27/0123Z TN13/0113Z

Runways

03/21 4285 ft / 75 ft
08/26 12001 ft / 150 ft
12/30 5366 ft / 100 ft

Outbound flights

Callsign Flying to Pilot ATD/STD ETA Aircraft

Inbound flights

Callsign Flying from Pilot ATD ETA Aircraft